createdAt,value
2023-02-06T00:00:00.791Z,77.47
2023-02-06T00:02:27.132Z,77.13
2023-02-06T00:04:53.463Z,77.30
2023-02-06T00:07:19.747Z,77.44
2023-02-06T00:09:46.010Z,77.35
2023-02-06T00:12:12.251Z,76.77
2023-02-06T00:14:38.521Z,76.55
2023-02-06T00:17:04.762Z,76.65
2023-02-06T00:19:31.020Z,75.15
2023-02-06T00:21:57.297Z,74.98
2023-02-06T00:24:23.568Z,76.32
2023-02-06T00:26:49.869Z,76.67
2023-02-06T00:29:16.164Z,77.26
2023-02-06T00:31:42.500Z,76.61
2023-02-06T00:34:08.812Z,77.38
2023-02-06T00:36:35.080Z,77.25
2023-02-06T00:39:01.319Z,77.13
2023-02-06T00:41:27.609Z,77.33
2023-02-06T00:43:53.889Z,77.32
2023-02-06T00:46:20.186Z,78.00
2023-02-06T00:48:46.484Z,76.07
2023-02-06T00:51:12.745Z,75.37
2023-02-06T00:53:39.015Z,75.30
2023-02-06T00:56:05.275Z,75.33
2023-02-06T00:58:31.554Z,74.92
2023-02-06T01:00:57.839Z,75.17
2023-02-06T01:03:24.090Z,75.19
2023-02-06T01:05:50.346Z,74.80
2023-02-06T01:08:16.597Z,75.32
2023-02-06T01:10:42.866Z,74.66
2023-02-06T01:13:09.170Z,73.98
2023-02-06T01:15:35.945Z,74.76
2023-02-06T01:18:02.355Z,74.51
2023-02-06T01:20:28.669Z,74.79
2023-02-06T01:22:54.949Z,74.64
2023-02-06T01:25:21.195Z,74.58
2023-02-06T01:27:47.530Z,74.88
2023-02-06T01:30:13.864Z,74.66
2023-02-06T01:32:40.119Z,75.01
2023-02-06T01:35:06.367Z,75.09
2023-02-06T01:37:32.616Z,75.63
2023-02-06T01:39:58.857Z,73.78
2023-02-06T01:42:25.129Z,73.52
2023-02-06T01:44:51.395Z,73.83
2023-02-06T01:47:17.649Z,73.13
2023-02-06T01:49:43.907Z,74.12
2023-02-06T01:52:10.176Z,74.57
2023-02-06T01:54:36.424Z,74.69
2023-02-06T01:57:02.683Z,75.35
2023-02-06T01:59:29.019Z,75.46
2023-02-06T02:01:55.337Z,75.15
2023-02-06T02:04:21.606Z,75.65
2023-02-06T02:06:47.852Z,75.39
2023-02-06T02:09:14.420Z,75.16
2023-02-06T02:11:40.718Z,75.27
2023-02-06T02:14:06.974Z,74.68
2023-02-06T02:16:33.334Z,74.09
2023-02-06T02:18:59.609Z,73.59
2023-02-06T02:21:25.871Z,72.59
2023-02-06T02:23:52.152Z,71.65
2023-02-06T02:26:18.380Z,72.04
2023-02-06T02:28:44.631Z,71.77
2023-02-06T02:31:11.018Z,71.77
2023-02-06T02:33:37.266Z,71.80
2023-02-06T02:36:03.552Z,72.20
2023-02-06T02:38:29.892Z,72.16
2023-02-06T02:40:56.193Z,72.15
2023-02-06T02:43:22.448Z,71.99
2023-02-06T02:45:48.928Z,72.13
2023-02-06T02:48:15.240Z,71.65
2023-02-06T02:50:41.497Z,72.16
2023-02-06T02:53:07.740Z,72.17
2023-02-06T02:55:34.165Z,71.79
2023-02-06T02:58:00.577Z,72.28
2023-02-06T03:00:26.893Z,70.70
2023-02-06T03:02:53.188Z,70.92
2023-02-06T03:05:19.442Z,70.82
2023-02-06T03:07:45.728Z,70.15
2023-02-06T03:10:12.015Z,70.26
2023-02-06T03:12:38.273Z,69.79
2023-02-06T03:15:04.592Z,69.61
2023-02-06T03:17:30.849Z,69.20
2023-02-06T03:19:57.102Z,68.92
2023-02-06T03:22:23.369Z,68.85
2023-02-06T03:24:49.632Z,68.90
2023-02-06T03:27:15.871Z,68.98
2023-02-06T03:29:42.113Z,68.68
2023-02-06T03:32:08.357Z,68.06
2023-02-06T03:34:34.604Z,68.36
2023-02-06T03:37:00.920Z,68.61
2023-02-06T03:39:27.239Z,69.04
2023-02-06T03:41:53.505Z,69.21
2023-02-06T03:44:19.826Z,69.36
2023-02-06T03:46:46.122Z,69.84
2023-02-06T03:49:12.369Z,70.30
2023-02-06T03:51:38.635Z,70.23
2023-02-06T03:54:04.893Z,70.50
2023-02-06T03:56:31.151Z,70.58
2023-02-06T03:58:57.482Z,70.66
2023-02-06T04:01:23.844Z,70.72
2023-02-06T04:03:50.148Z,70.72
2023-02-06T04:06:16.411Z,70.64
2023-02-06T04:08:42.652Z,70.85
2023-02-06T04:11:08.906Z,70.88
2023-02-06T04:13:35.268Z,70.87
2023-02-06T04:16:01.590Z,70.64
2023-02-06T04:18:27.856Z,70.90
2023-02-06T04:20:54.187Z,70.74
2023-02-06T04:23:20.468Z,71.04
2023-02-06T04:25:46.713Z,71.60
2023-02-06T04:28:13.037Z,71.74
2023-02-06T04:30:39.326Z,71.80
2023-02-06T04:33:05.591Z,71.65
2023-02-06T04:35:31.926Z,71.58
2023-02-06T04:37:58.216Z,71.67
2023-02-06T04:40:24.472Z,71.61
2023-02-06T04:42:50.748Z,71.57
2023-02-06T04:45:17.009Z,71.66
2023-02-06T04:47:43.259Z,71.57
2023-02-06T04:50:09.514Z,71.06
2023-02-06T04:52:35.838Z,70.98
2023-02-06T04:55:02.084Z,70.60
2023-02-06T04:57:28.387Z,70.87
2023-02-06T04:59:54.655Z,71.41
2023-02-06T05:02:20.950Z,71.34
2023-02-06T05:04:47.234Z,71.25
2023-02-06T05:07:13.515Z,70.87
2023-02-06T05:09:39.769Z,70.87
2023-02-06T05:12:06.089Z,70.49
2023-02-06T05:14:32.407Z,70.71
2023-02-06T05:16:58.655Z,70.35
2023-02-06T05:19:24.905Z,70.08
2023-02-06T05:21:51.172Z,69.90
2023-02-06T05:24:17.417Z,69.90
2023-02-06T05:26:43.685Z,70.05
2023-02-06T05:29:09.947Z,69.39
2023-02-06T05:31:36.351Z,69.23
2023-02-06T05:34:02.749Z,69.55
2023-02-06T05:36:29.072Z,69.51
2023-02-06T05:38:55.364Z,69.56
2023-02-06T05:41:21.611Z,68.91
2023-02-06T05:43:47.882Z,68.91
2023-02-06T05:46:14.136Z,68.48
2023-02-06T05:48:40.391Z,68.56
2023-02-06T05:51:06.669Z,67.39
2023-02-06T05:53:32.913Z,65.95
2023-02-06T05:55:59.171Z,65.98
2023-02-06T05:58:25.442Z,66.70
2023-02-06T06:00:51.754Z,67.34
2023-02-06T06:03:18.061Z,67.35
2023-02-06T06:05:44.354Z,65.29
2023-02-06T06:08:10.620Z,65.02
2023-02-06T06:10:36.910Z,65.27
2023-02-06T06:13:03.204Z,66.25
2023-02-06T06:15:29.445Z,65.28
2023-02-06T06:17:55.711Z,65.77
2023-02-06T06:20:21.961Z,65.65
2023-02-06T06:22:48.226Z,65.54
2023-02-06T06:25:14.500Z,65.74
2023-02-06T06:27:40.781Z,65.71
2023-02-06T06:30:07.041Z,65.36
2023-02-06T06:32:33.438Z,64.58
2023-02-06T06:34:59.728Z,64.73
2023-02-06T06:37:25.968Z,65.28
2023-02-06T06:39:52.240Z,65.95
2023-02-06T06:42:18.493Z,66.52
2023-02-06T06:44:44.816Z,65.78
2023-02-06T06:47:11.151Z,65.20
2023-02-06T06:49:37.455Z,65.20
2023-02-06T06:52:05.547Z,65.54
2023-02-06T06:54:33.385Z,65.64
2023-02-06T06:56:59.735Z,65.33
2023-02-06T06:59:26.038Z,65.59
2023-02-06T07:01:52.419Z,65.92
2023-02-06T07:04:18.740Z,65.71
2023-02-06T07:06:44.988Z,65.16
2023-02-06T07:09:11.325Z,65.21
2023-02-06T07:11:37.638Z,65.94
2023-02-06T07:14:03.909Z,65.56
2023-02-06T07:16:30.237Z,65.24
2023-02-06T07:18:58.188Z,64.89
2023-02-06T07:21:24.480Z,65.15
2023-02-06T07:23:50.886Z,65.22
2023-02-06T07:26:17.224Z,64.75
2023-02-06T07:28:43.727Z,64.33
2023-02-06T07:31:09.985Z,63.92
2023-02-06T07:33:36.228Z,64.34
2023-02-06T07:36:04.074Z,65.01
2023-02-06T07:38:31.516Z,64.06
2023-02-06T07:40:57.816Z,63.24
2023-02-06T07:43:24.055Z,63.15
2023-02-06T07:45:50.389Z,63.29
2023-02-06T07:48:16.802Z,61.76
2023-02-06T07:50:43.074Z,61.58
2023-02-06T07:53:09.330Z,62.22
2023-02-06T07:55:35.926Z,61.81
2023-02-06T07:58:02.322Z,61.65
2023-02-06T08:00:28.652Z,62.24
2023-02-06T08:02:55.139Z,63.24
2023-02-06T08:05:21.442Z,62.70
2023-02-06T08:07:47.723Z,61.21
2023-02-06T08:10:13.980Z,61.12
2023-02-06T08:12:40.207Z,60.27
2023-02-06T08:15:06.479Z,59.36
2023-02-06T08:17:32.735Z,59.27
2023-02-06T08:19:58.973Z,59.04
2023-02-06T08:22:25.228Z,59.15
2023-02-06T08:24:51.731Z,58.80
2023-02-06T08:27:17.974Z,58.94
2023-02-06T08:29:44.323Z,59.36
2023-02-06T08:32:10.620Z,59.02
2023-02-06T08:34:36.897Z,59.25
2023-02-06T08:37:03.135Z,58.52
2023-02-06T08:39:29.451Z,58.76
2023-02-06T08:41:55.806Z,59.03
2023-02-06T08:44:22.079Z,58.67
2023-02-06T08:46:49.667Z,57.44
2023-02-06T08:49:18.622Z,56.68
2023-02-06T08:51:44.884Z,55.98
2023-02-06T08:54:11.142Z,56.11
2023-02-06T08:56:37.416Z,55.15
2023-02-06T08:59:03.677Z,54.11
2023-02-06T09:01:30.002Z,53.93
2023-02-06T09:03:56.347Z,53.04
2023-02-06T09:06:22.660Z,52.05
2023-02-06T09:08:48.907Z,51.02
2023-02-06T09:11:15.181Z,50.94
2023-02-06T09:13:41.435Z,50.68
2023-02-06T09:16:07.794Z,50.69
2023-02-06T09:18:34.375Z,50.79
2023-02-06T09:21:00.622Z,50.61
2023-02-06T09:23:26.922Z,51.71
2023-02-06T09:25:53.179Z,51.40
2023-02-06T09:28:19.464Z,50.70
2023-02-06T09:30:45.971Z,52.16
2023-02-06T09:33:12.345Z,51.46
2023-02-06T09:35:39.008Z,50.83
2023-02-06T09:38:05.436Z,51.15
2023-02-06T09:40:31.702Z,51.62
2023-02-06T09:42:57.975Z,51.73
2023-02-06T09:45:24.232Z,52.08
2023-02-06T09:47:50.559Z,52.04
2023-02-06T09:50:16.881Z,51.88
2023-02-06T09:52:43.141Z,51.82
2023-02-06T09:55:09.442Z,51.95
2023-02-06T09:57:35.744Z,51.72
2023-02-06T10:00:02.042Z,51.87
2023-02-06T10:02:28.344Z,51.71
2023-02-06T10:04:54.709Z,50.77
2023-02-06T10:07:20.979Z,50.22
2023-02-06T10:09:47.305Z,50.60
2023-02-06T10:12:13.610Z,50.71
2023-02-06T10:14:39.872Z,50.25
2023-02-06T10:17:06.133Z,47.96
2023-02-06T10:19:32.442Z,47.19
2023-02-06T10:21:58.794Z,48.33
2023-02-06T10:24:25.057Z,48.36
2023-02-06T10:26:51.295Z,48.12
2023-02-06T10:29:17.635Z,47.81
2023-02-06T10:31:43.980Z,48.26
2023-02-06T10:34:10.248Z,48.76
2023-02-06T10:36:36.572Z,48.91
2023-02-06T10:39:02.891Z,48.66
2023-02-06T10:41:29.137Z,48.93
2023-02-06T10:43:55.406Z,48.12
2023-02-06T10:46:21.696Z,48.31
2023-02-06T10:48:47.946Z,47.78
2023-02-06T10:51:14.218Z,47.93
2023-02-06T10:53:40.462Z,47.92
2023-02-06T10:56:06.717Z,47.53
2023-02-06T10:58:33.437Z,47.91
2023-02-06T11:00:59.764Z,49.27
2023-02-06T11:03:26.095Z,50.35
2023-02-06T11:05:52.354Z,49.98
2023-02-06T11:08:18.631Z,50.26
2023-02-06T11:10:44.874Z,51.84
2023-02-06T11:13:11.147Z,51.88
2023-02-06T11:15:37.747Z,52.07
2023-02-06T11:18:04.296Z,51.78
2023-02-06T11:20:30.605Z,51.84
2023-02-06T11:22:56.850Z,51.77
2023-02-06T11:25:23.220Z,51.61
2023-02-06T11:27:49.509Z,51.48
2023-02-06T11:30:15.825Z,51.34
2023-02-06T11:32:42.131Z,51.08
2023-02-06T11:35:08.385Z,50.55
2023-02-06T11:37:34.752Z,50.98
2023-02-06T11:40:01.109Z,50.69
2023-02-06T11:42:27.427Z,51.23
2023-02-06T11:44:53.774Z,50.63
2023-02-06T11:47:20.070Z,50.91
2023-02-06T11:49:46.323Z,50.31
2023-02-06T11:52:12.599Z,50.31
2023-02-06T11:54:38.921Z,50.79
2023-02-06T11:57:05.217Z,50.94
2023-02-06T11:59:31.493Z,51.05
2023-02-06T12:01:57.890Z,50.88
2023-02-06T12:04:24.233Z,49.87
2023-02-06T12:06:50.564Z,49.81
2023-02-06T12:09:16.826Z,49.20
2023-02-06T12:11:43.116Z,48.75
2023-02-06T12:14:09.425Z,48.51
2023-02-06T12:16:35.776Z,48.17
2023-02-06T12:19:02.098Z,47.76
2023-02-06T12:21:28.584Z,47.36
2023-02-06T12:23:55.014Z,47.06
2023-02-06T12:26:21.408Z,47.25
2023-02-06T12:28:47.694Z,47.84
2023-02-06T12:31:14.029Z,48.47
2023-02-06T12:33:40.429Z,49.25
2023-02-06T12:36:06.841Z,49.62
2023-02-06T12:38:33.074Z,49.73
2023-02-06T12:40:59.719Z,49.69
2023-02-06T12:43:26.092Z,49.33
2023-02-06T12:45:52.433Z,49.16
2023-02-06T12:48:18.830Z,48.99
2023-02-06T12:50:45.164Z,49.08
2023-02-06T12:53:11.507Z,49.44
2023-02-06T12:55:38.115Z,49.78
2023-02-06T12:58:04.596Z,49.76
2023-02-06T13:00:30.828Z,50.15
2023-02-06T13:02:57.335Z,49.88
2023-02-06T13:05:23.689Z,49.51
2023-02-06T13:07:50.132Z,49.65
2023-02-06T13:10:16.476Z,49.91
2023-02-06T13:12:42.725Z,50.01
2023-02-06T13:15:08.955Z,50.69
2023-02-06T13:17:35.310Z,50.48
2023-02-06T13:20:01.623Z,50.16
2023-02-06T13:22:27.998Z,50.11
2023-02-06T13:24:54.316Z,50.00
2023-02-06T13:27:20.886Z,49.78
2023-02-06T13:29:47.142Z,49.57
2023-02-06T13:32:13.393Z,49.64
2023-02-06T13:34:39.694Z,49.48
2023-02-06T13:37:05.974Z,49.26
2023-02-06T13:39:32.330Z,48.94
2023-02-06T13:41:58.638Z,49.03
2023-02-06T13:44:24.886Z,48.92
2023-02-06T13:46:51.213Z,49.20
2023-02-06T13:49:17.500Z,48.95
2023-02-06T13:51:43.800Z,49.23
2023-02-06T13:54:10.068Z,48.70
2023-02-06T13:56:36.389Z,49.25
2023-02-06T13:59:02.653Z,48.75
2023-02-06T14:01:29.018Z,48.70
2023-02-06T14:03:55.350Z,48.67
2023-02-06T14:06:21.604Z,48.97
2023-02-06T14:08:47.969Z,49.17
2023-02-06T14:11:14.271Z,49.90
2023-02-06T14:13:40.529Z,50.21
2023-02-06T14:16:06.901Z,51.02
2023-02-06T14:18:33.262Z,51.52
2023-02-06T14:20:59.491Z,52.07
2023-02-06T14:23:25.795Z,52.41
2023-02-06T14:25:52.109Z,52.93
2023-02-06T14:28:18.420Z,53.18
2023-02-06T14:30:44.773Z,53.43
2023-02-06T14:33:11.087Z,53.33
2023-02-06T14:35:37.724Z,53.06
2023-02-06T14:38:04.179Z,52.46
2023-02-06T14:40:30.457Z,52.51
2023-02-06T14:42:56.749Z,52.62
2023-02-06T14:45:23.206Z,52.18
2023-02-06T14:47:49.478Z,52.27
2023-02-06T14:50:15.769Z,51.99
2023-02-06T14:52:42.039Z,51.61
2023-02-06T14:55:08.295Z,51.61
2023-02-06T14:57:34.541Z,51.99
2023-02-06T15:00:00.886Z,51.68
2023-02-06T15:02:27.228Z,51.29
2023-02-06T15:04:53.522Z,51.77
2023-02-06T15:07:19.825Z,51.15
2023-02-06T15:09:46.140Z,50.75
2023-02-06T15:12:12.412Z,51.37
2023-02-06T15:14:39.455Z,51.29
2023-02-06T15:17:05.700Z,50.79
2023-02-06T15:19:31.939Z,50.81
2023-02-06T15:21:58.175Z,51.05
2023-02-06T15:24:24.490Z,50.90
2023-02-06T15:26:50.787Z,50.52
2023-02-06T15:29:17.045Z,50.67
2023-02-06T15:31:43.361Z,51.04
2023-02-06T15:34:10.089Z,50.83
2023-02-06T15:36:36.352Z,49.94
2023-02-06T15:39:02.637Z,50.43
2023-02-06T15:41:28.901Z,50.53
2023-02-06T15:43:55.156Z,50.32
2023-02-06T15:46:21.398Z,50.58
2023-02-06T15:48:47.706Z,49.90
2023-02-06T15:51:13.997Z,50.23
2023-02-06T15:53:40.260Z,50.60
2023-02-06T15:56:06.521Z,51.20
2023-02-06T15:58:32.842Z,52.69
2023-02-06T16:00:59.159Z,52.59
2023-02-06T16:03:25.488Z,52.83
2023-02-06T16:05:51.758Z,52.80
2023-02-06T16:08:18.060Z,53.30
2023-02-06T16:10:44.364Z,53.44
2023-02-06T16:13:10.624Z,54.02
2023-02-06T16:15:37.011Z,54.39
2023-02-06T16:18:03.290Z,54.88
2023-02-06T16:20:29.571Z,55.67
2023-02-06T16:22:55.838Z,56.07
2023-02-06T16:25:24.640Z,56.95
2023-02-06T16:27:50.939Z,57.48
2023-02-06T16:30:17.188Z,58.25
2023-02-06T16:32:43.523Z,58.12
2023-02-06T16:35:09.770Z,58.34
2023-02-06T16:37:36.015Z,58.66
2023-02-06T16:40:02.427Z,59.18
2023-02-06T16:42:28.758Z,60.95
2023-02-06T16:44:56.120Z,61.96
2023-02-06T16:47:22.362Z,63.70
2023-02-06T16:49:48.686Z,64.51
2023-02-06T16:52:14.942Z,64.46
2023-02-06T16:54:41.279Z,65.67
2023-02-06T16:57:07.606Z,65.53
2023-02-06T16:59:33.860Z,65.74
2023-02-06T17:02:00.143Z,66.36
2023-02-06T17:04:26.471Z,66.21
2023-02-06T17:06:52.724Z,65.90
2023-02-06T17:09:18.997Z,66.14
2023-02-06T17:11:45.365Z,65.96
2023-02-06T17:14:11.596Z,65.06
2023-02-06T17:16:37.893Z,66.56
2023-02-06T17:19:04.212Z,67.33
2023-02-06T17:21:30.447Z,67.75
2023-02-06T17:23:56.724Z,69.27
2023-02-06T17:26:23.021Z,69.28
2023-02-06T17:28:49.279Z,69.98
2023-02-06T17:31:15.685Z,69.26
2023-02-06T17:33:42.051Z,68.18
2023-02-06T17:36:08.351Z,66.60
2023-02-06T17:38:34.577Z,65.60
2023-02-06T17:41:00.821Z,67.12
2023-02-06T17:43:27.120Z,68.70
2023-02-06T17:45:53.384Z,70.36
2023-02-06T17:48:19.646Z,72.76
2023-02-06T17:50:45.968Z,71.23
2023-02-06T17:53:12.237Z,70.32
2023-02-06T17:55:38.479Z,70.20
2023-02-06T17:58:04.931Z,71.51
2023-02-06T18:00:31.206Z,72.82
2023-02-06T18:02:57.498Z,74.50
2023-02-06T18:05:23.830Z,74.04
2023-02-06T18:07:50.106Z,74.08
2023-02-06T18:10:16.348Z,73.60
2023-02-06T18:12:42.649Z,72.99
2023-02-06T18:15:08.904Z,72.02
2023-02-06T18:17:35.150Z,70.53
2023-02-06T18:20:01.473Z,70.37
2023-02-06T18:22:27.772Z,69.59
2023-02-06T18:24:54.038Z,69.02
2023-02-06T18:27:20.340Z,69.29
2023-02-06T18:29:50.186Z,69.30
2023-02-06T18:32:16.848Z,69.63
2023-02-06T18:34:43.110Z,69.46
2023-02-06T18:37:09.371Z,69.35
2023-02-06T18:39:35.613Z,69.30
2023-02-06T18:42:01.929Z,69.57
2023-02-06T18:44:28.236Z,69.58
2023-02-06T18:46:54.516Z,69.92
2023-02-06T18:49:20.884Z,69.89
2023-02-06T18:51:47.197Z,69.70
2023-02-06T18:54:13.449Z,70.00
2023-02-06T18:56:39.721Z,70.49
2023-02-06T18:59:06.030Z,70.82
2023-02-06T19:01:32.377Z,73.20
2023-02-06T19:03:58.668Z,74.60
2023-02-06T19:06:24.942Z,75.18
2023-02-06T19:08:51.216Z,74.89
2023-02-06T19:11:17.472Z,75.09
2023-02-06T19:13:43.908Z,74.97
2023-02-06T19:16:10.208Z,74.12
2023-02-06T19:18:39.576Z,74.11
2023-02-06T19:21:06.533Z,73.60
2023-02-06T19:23:32.762Z,73.22
2023-02-06T19:25:59.022Z,73.32
2023-02-06T19:28:25.347Z,73.02
2023-02-06T19:30:51.786Z,72.66
2023-02-06T19:33:18.060Z,71.75
2023-02-06T19:35:44.304Z,72.43
2023-02-06T19:38:10.553Z,73.15
2023-02-06T19:40:36.942Z,72.84
2023-02-06T19:43:03.366Z,71.69
2023-02-06T19:45:29.651Z,71.45
2023-02-06T19:47:55.910Z,71.08
2023-02-06T19:50:22.217Z,70.61
2023-02-06T19:52:48.531Z,70.25
2023-02-06T19:55:14.836Z,69.77
2023-02-06T19:57:41.088Z,70.08
2023-02-06T20:00:07.429Z,69.90
2023-02-06T20:02:33.726Z,68.89
2023-02-06T20:05:02.427Z,67.91
2023-02-06T20:07:29.216Z,66.12
2023-02-06T20:09:55.518Z,67.61
2023-02-06T20:12:21.766Z,68.78
2023-02-06T20:14:48.059Z,69.90
2023-02-06T20:17:14.376Z,70.41
2023-02-06T20:19:40.628Z,69.96
2023-02-06T20:22:06.866Z,69.23
2023-02-06T20:24:33.249Z,69.09
2023-02-06T20:26:59.549Z,67.15
2023-02-06T20:29:26.611Z,66.51
2023-02-06T20:31:53.074Z,67.29
2023-02-06T20:34:19.378Z,67.80
2023-02-06T20:36:45.696Z,68.38
2023-02-06T20:39:11.980Z,68.04
2023-02-06T20:41:38.210Z,68.45
2023-02-06T20:44:04.518Z,68.42
2023-02-06T20:46:30.900Z,66.71
2023-02-06T20:48:57.180Z,64.65
2023-02-06T20:51:23.435Z,64.14
2023-02-06T20:53:49.702Z,62.89
2023-02-06T20:56:15.960Z,64.62
2023-02-06T20:58:42.225Z,65.94
2023-02-06T21:01:08.839Z,65.96
2023-02-06T21:03:35.114Z,65.00
2023-02-06T21:06:01.358Z,62.48
2023-02-06T21:08:27.938Z,63.02
2023-02-06T21:10:54.223Z,63.51
2023-02-06T21:13:20.464Z,62.98
2023-02-06T21:15:47.257Z,62.81
2023-02-06T21:18:13.529Z,63.81
2023-02-06T21:20:39.762Z,65.08
2023-02-06T21:23:06.021Z,65.93
2023-02-06T21:25:32.265Z,65.34
2023-02-06T21:27:58.511Z,65.30
2023-02-06T21:30:24.798Z,65.48
2023-02-06T21:32:51.055Z,64.83
2023-02-06T21:35:17.377Z,64.01
2023-02-06T21:37:43.670Z,64.60
2023-02-06T21:40:09.905Z,66.19
2023-02-06T21:42:36.169Z,66.13
2023-02-06T21:45:02.407Z,64.70
2023-02-06T21:47:28.640Z,64.88
2023-02-06T21:49:54.876Z,64.11
2023-02-06T21:52:21.129Z,62.52
2023-02-06T21:54:47.357Z,60.58
2023-02-06T21:57:13.597Z,60.38
2023-02-06T21:59:39.836Z,60.44
2023-02-06T22:02:06.085Z,61.03
2023-02-06T22:04:32.315Z,62.38
2023-02-06T22:06:58.570Z,62.76
2023-02-06T22:09:24.809Z,63.46
2023-02-06T22:11:51.083Z,63.99
2023-02-06T22:14:17.393Z,63.82
2023-02-06T22:16:43.675Z,63.63
2023-02-06T22:19:09.926Z,63.79
2023-02-06T22:21:36.181Z,63.57
2023-02-06T22:24:02.491Z,63.45
2023-02-06T22:26:29.581Z,62.79
2023-02-06T22:28:55.809Z,64.26
2023-02-06T22:31:22.114Z,64.23
2023-02-06T22:33:48.512Z,64.49
2023-02-06T22:36:14.832Z,63.95
2023-02-06T22:38:41.087Z,64.66
2023-02-06T22:41:07.315Z,65.12
2023-02-06T22:43:33.547Z,63.78
2023-02-06T22:45:59.800Z,63.16
2023-02-06T22:48:26.049Z,63.26
2023-02-06T22:50:52.281Z,65.31
2023-02-06T22:53:18.509Z,66.26
2023-02-06T22:55:44.802Z,70.28
2023-02-06T22:58:11.092Z,70.42
2023-02-06T23:00:37.352Z,70.14
2023-02-06T23:03:03.704Z,70.00
2023-02-06T23:05:30.000Z,69.64
2023-02-06T23:07:56.210Z,69.41
2023-02-06T23:10:22.514Z,66.90
2023-02-06T23:12:48.793Z,67.54
2023-02-06T23:15:15.031Z,67.78
2023-02-06T23:17:41.309Z,68.24
2023-02-06T23:20:07.556Z,68.49
2023-02-06T23:22:33.789Z,69.27
2023-02-06T23:25:00.104Z,69.77
2023-02-06T23:27:26.369Z,70.60
2023-02-06T23:29:52.601Z,70.87
2023-02-06T23:32:18.918Z,70.67
2023-02-06T23:34:45.190Z,70.42
2023-02-06T23:37:11.457Z,70.11
2023-02-06T23:39:37.700Z,69.88
2023-02-06T23:42:03.948Z,69.88
2023-02-06T23:44:30.204Z,70.15
2023-02-06T23:46:56.450Z,70.74
2023-02-06T23:49:22.684Z,70.50
2023-02-06T23:51:48.943Z,70.02
2023-02-06T23:54:15.192Z,68.92
2023-02-06T23:56:41.453Z,68.32
2023-02-06T23:59:07.702Z,68.45
